Time;durP1;ratioP1;P1;durP2;ratioP2;P2;SDS_P1;SDS_P2;PMS_P1;PMS_P2;Temp;Humidity;BMP_temperature;BMP_pressure;BME280_temperature;BME280_humidity;BME280_pressure;Samples;Min_cycle;Max_cycle;Signal;HPM_P1;HPM_P2
2023/12/27 00:02:26;;;;;;;37.50;17.77;;;4.40;99.90;;;;;;5089175;28;20235;-58
2023/12/27 00:04:59;;;;;;;43.97;17.00;;;4.40;99.90;;;;;;5083393;28;20286;-57
2023/12/27 00:07:27;;;;;;;50.03;17.20;;;4.50;99.90;;;;;;5088272;28;20196;-58
2023/12/27 00:09:55;;;;;;;35.07;17.00;;;4.50;99.90;;;;;;5085790;28;20222;-57
2023/12/27 00:12:24;;;;;;;39.83;17.87;;;4.50;99.90;;;;;;5086796;28;20707;-57
2023/12/27 00:14:52;;;;;;;44.00;17.77;;;4.50;99.90;;;;;;5083007;28;20704;-58
2023/12/27 00:17:20;;;;;;;52.30;18.80;;;4.60;99.90;;;;;;5088666;28;20321;-58
2023/12/27 00:19:48;;;;;;;43.50;19.10;;;4.60;99.90;;;;;;5087610;28;20192;-59
2023/12/27 00:22:18;;;;;;;40.50;17.97;;;4.60;99.90;;;;;;5086250;28;20309;-58
2023/12/27 00:24:46;;;;;;;44.43;18.30;;;4.70;99.90;;;;;;5076472;28;20229;-57
2023/12/27 00:27:14;;;;;;;48.87;19.07;;;4.70;99.90;;;;;;5090779;28;20219;-57
2023/12/27 00:29:43;;;;;;;36.67;17.70;;;4.70;99.90;;;;;;5088303;28;20306;-58
2023/12/27 00:32:11;;;;;;;48.77;18.30;;;4.70;99.90;;;;;;5087185;28;20191;-58
2023/12/27 00:34:40;;;;;;;47.80;18.70;;;4.70;99.90;;;;;;5090183;28;20205;-57
2023/12/27 00:37:09;;;;;;;44.47;17.83;;;4.70;99.90;;;;;;5089012;28;20226;-58
2023/12/27 00:39:38;;;;;;;50.00;18.20;;;4.80;99.90;;;;;;5083594;28;20215;-57
2023/12/27 00:42:07;;;;;;;41.33;17.93;;;4.80;99.90;;;;;;5088394;28;20215;-58
2023/12/27 00:44:36;;;;;;;38.33;16.90;;;4.80;99.90;;;;;;5086739;28;20815;-58
2023/12/27 00:47:04;;;;;;;37.63;16.53;;;4.80;99.90;;;;;;5087438;28;20195;-58
2023/12/27 00:49:32;;;;;;;42.87;17.73;;;4.80;99.90;;;;;;5089769;28;20276;-57
2023/12/27 00:52:01;;;;;;;41.53;16.83;;;4.90;99.90;;;;;;5087413;28;20238;-58
2023/12/27 00:54:29;;;;;;;35.60;15.93;;;4.90;99.90;;;;;;5089492;28;20306;-58
2023/12/27 00:56:59;;;;;;;43.50;16.47;;;4.90;99.90;;;;;;5090014;28;20247;-58
2023/12/27 00:59:27;;;;;;;39.33;16.37;;;4.90;99.90;;;;;;5092394;28;20219;-59
2023/12/27 01:01:55;;;;;;;38.50;16.90;;;5.00;99.90;;;;;;5087708;28;20188;-58
2023/12/27 01:04:23;;;;;;;38.60;16.23;;;5.00;99.90;;;;;;5083119;28;20231;-58
2023/12/27 01:06:52;;;;;;;36.20;16.53;;;5.10;99.90;;;;;;5087619;28;20306;-58
2023/12/27 01:09:20;;;;;;;37.27;15.43;;;5.10;99.90;;;;;;5090190;28;20554;-58
2023/12/27 01:11:48;;;;;;;30.83;14.80;;;5.10;99.90;;;;;;5088098;28;20215;-57
2023/12/27 01:14:19;;;;;;;28.87;15.10;;;5.20;99.90;;;;;;5088948;28;20192;-59
2023/12/27 01:16:47;;;;;;;36.07;15.67;;;5.20;99.90;;;;;;5089822;28;20565;-58
2023/12/27 01:19:16;;;;;;;42.13;15.83;;;5.30;99.90;;;;;;5091285;28;20215;-58
2023/12/27 01:21:44;;;;;;;39.90;16.30;;;5.30;99.90;;;;;;5082335;28;20215;-58
2023/12/27 01:24:12;;;;;;;38.07;15.30;;;5.20;99.90;;;;;;5082166;28;20693;-59
2023/12/27 01:26:41;;;;;;;33.40;14.63;;;5.30;99.90;;;;;;5092037;28;20960;-58
2023/12/27 01:29:09;;;;;;;36.70;14.63;;;5.30;99.90;;;;;;5080580;28;20694;-58
2023/12/27 01:31:39;;;;;;;35.33;15.43;;;5.30;99.90;;;;;;5080535;28;20196;-59
2023/12/27 01:34:07;;;;;;;47.90;15.23;;;5.30;99.90;;;;;;5085619;28;20697;-58
2023/12/27 01:36:46;;;;;;;35.90;13.67;;;5.40;99.90;;;;;;5083893;28;20224;-58
2023/12/27 01:39:15;;;;;;;35.00;14.17;;;5.40;99.90;;;;;;5087589;28;20222;-59
2023/12/27 01:41:44;;;;;;;47.27;14.43;;;5.40;99.90;;;;;;5090570;28;20243;-59
2023/12/27 01:44:12;;;;;;;34.47;14.60;;;5.40;99.90;;;;;;5080049;28;20400;-58
2023/12/27 01:46:42;;;;;;;32.37;13.43;;;5.50;99.90;;;;;;5087694;28;20200;-59
2023/12/27 01:49:11;;;;;;;37.77;14.30;;;5.50;99.90;;;;;;5090604;28;20539;-59
2023/12/27 01:51:39;;;;;;;36.50;14.13;;;5.50;99.90;;;;;;5089609;28;20295;-59
2023/12/27 01:54:08;;;;;;;34.27;14.83;;;5.50;99.90;;;;;;5085371;28;20218;-59
2023/12/27 01:56:36;;;;;;;41.40;14.70;;;5.50;99.90;;;;;;5086768;28;20223;-58
2023/12/27 01:59:04;;;;;;;31.70;13.93;;;5.60;99.90;;;;;;5087748;28;20270;-58
2023/12/27 02:01:32;;;;;;;35.93;14.33;;;5.60;99.90;;;;;;5082371;28;20700;-59
2023/12/27 02:04:02;;;;;;;32.13;13.67;;;5.60;99.90;;;;;;5084166;28;20227;-58
2023/12/27 02:06:31;;;;;;;33.27;13.67;;;5.60;99.90;;;;;;5085672;28;20220;-58
2023/12/27 02:09:00;;;;;;;28.43;13.60;;;5.60;99.90;;;;;;5080047;28;20222;-59
2023/12/27 02:11:28;;;;;;;36.07;13.40;;;5.70;99.90;;;;;;5091567;28;20302;-58
2023/12/27 02:13:56;;;;;;;35.13;13.67;;;5.70;99.90;;;;;;5086318;28;20192;-60
2023/12/27 02:16:25;;;;;;;28.53;11.97;;;5.70;99.90;;;;;;5082427;28;20257;-60
2023/12/27 02:18:53;;;;;;;30.77;11.53;;;5.80;99.90;;;;;;5083665;28;20227;-60
2023/12/27 02:21:25;;;;;;;33.67;12.43;;;5.80;99.90;;;;;;5091343;28;20227;-60
2023/12/27 02:23:55;;;;;;;33.57;13.03;;;5.90;99.90;;;;;;5085467;28;20230;-60
2023/12/27 02:26:25;;;;;;;29.03;10.87;;;5.90;99.90;;;;;;5088450;28;20234;-60
2023/12/27 02:28:53;;;;;;;29.00;10.80;;;6.00;99.90;;;;;;5087473;28;20585;-60
2023/12/27 02:31:22;;;;;;;23.57;10.43;;;6.00;99.90;;;;;;5087464;28;20744;-59
2023/12/27 02:33:50;;;;;;;31.90;10.67;;;6.10;99.90;;;;;;5085965;28;21570;-59
2023/12/27 02:36:18;;;;;;;24.00;9.80;;;6.10;99.90;;;;;;5084718;28;20576;-59
2023/12/27 02:38:47;;;;;;;25.93;10.47;;;6.20;99.90;;;;;;5085428;28;20215;-59
2023/12/27 02:41:15;;;;;;;20.90;10.00;;;6.20;99.90;;;;;;5086199;28;20586;-59
2023/12/27 02:43:44;;;;;;;25.93;10.17;;;6.20;99.90;;;;;;5085354;28;20202;-60
2023/12/27 02:46:13;;;;;;;29.00;10.23;;;6.30;99.90;;;;;;5086035;28;20219;-59
2023/12/27 02:48:41;;;;;;;38.07;10.87;;;6.30;99.90;;;;;;5082568;28;20881;-60
2023/12/27 02:51:09;;;;;;;28.03;10.70;;;6.40;99.90;;;;;;5085996;28;20246;-59
2023/12/27 02:53:37;;;;;;;26.03;10.23;;;6.40;99.90;;;;;;5085403;28;20223;-59
2023/12/27 02:56:06;;;;;;;29.23;11.30;;;6.40;99.90;;;;;;5088605;28;20194;-59
2023/12/27 02:58:34;;;;;;;27.27;11.03;;;6.50;99.90;;;;;;5086547;28;20207;-59
2023/12/27 03:01:04;;;;;;;31.10;11.07;;;6.50;99.90;;;;;;5083728;28;20219;-59
2023/12/27 03:03:32;;;;;;;29.67;11.90;;;6.50;99.90;;;;;;5082751;28;20227;-59
2023/12/27 03:06:01;;;;;;;32.47;11.93;;;6.50;99.90;;;;;;5083718;28;20226;-59
2023/12/27 03:08:29;;;;;;;34.53;12.37;;;6.60;99.90;;;;;;5082401;28;20227;-59
2023/12/27 03:10:57;;;;;;;30.07;12.20;;;6.60;99.90;;;;;;5085776;28;20202;-59
2023/12/27 03:13:25;;;;;;;38.90;12.83;;;6.60;99.90;;;;;;5087791;28;20302;-59
2023/12/27 03:15:53;;;;;;;35.37;13.17;;;6.70;99.90;;;;;;5085057;28;20226;-59
2023/12/27 03:18:22;;;;;;;34.47;13.33;;;6.70;99.90;;;;;;5087636;28;20225;-59
2023/12/27 03:20:51;;;;;;;33.93;13.63;;;6.70;99.90;;;;;;5086866;28;20601;-59
2023/12/27 03:23:19;;;;;;;32.73;14.07;;;6.70;99.90;;;;;;5083662;28;20804;-60
2023/12/27 03:25:47;;;;;;;42.50;13.97;;;6.70;99.90;;;;;;5085452;28;20192;-59
2023/12/27 03:28:16;;;;;;;35.27;13.80;;;6.70;99.90;;;;;;5083952;28;20224;-60
2023/12/27 03:30:44;;;;;;;31.80;14.00;;;6.80;99.90;;;;;;5083033;28;20220;-59
2023/12/27 03:33:13;;;;;;;36.00;15.40;;;6.80;99.90;;;;;;5085990;27;20324;-59
2023/12/27 03:35:42;;;;;;;35.87;15.07;;;6.80;99.90;;;;;;5082366;28;20306;-60
2023/12/27 03:38:11;;;;;;;37.80;15.73;;;6.80;99.90;;;;;;5083490;28;20282;-60
2023/12/27 03:40:39;;;;;;;42.33;15.80;;;6.90;99.90;;;;;;5085546;28;20193;-59
2023/12/27 03:43:07;;;;;;;44.57;15.57;;;6.90;99.90;;;;;;5085442;28;20566;-59
2023/12/27 03:45:36;;;;;;;38.57;15.47;;;6.90;99.90;;;;;;5084744;28;20219;-59
2023/12/27 03:48:05;;;;;;;42.27;17.03;;;7.00;99.90;;;;;;5085386;28;20284;-59
2023/12/27 03:50:34;;;;;;;42.77;15.57;;;7.00;99.90;;;;;;5082871;28;20227;-59
2023/12/27 03:53:04;;;;;;;40.70;16.50;;;7.00;99.90;;;;;;5085254;28;20196;-59
2023/12/27 03:55:32;;;;;;;36.07;16.13;;;7.10;99.90;;;;;;5086286;28;20199;-59
2023/12/27 03:58:00;;;;;;;43.30;16.83;;;7.20;99.90;;;;;;5086349;28;20215;-59
2023/12/27 04:00:29;;;;;;;34.07;16.20;;;7.20;99.90;;;;;;5084270;28;20260;-59
2023/12/27 04:02:57;;;;;;;41.60;16.53;;;7.30;99.90;;;;;;5082577;28;20215;-59
2023/12/27 04:05:26;;;;;;;41.67;15.40;;;7.40;99.90;;;;;;5084675;28;20223;-62
2023/12/27 04:07:55;;;;;;;33.87;15.10;;;7.40;99.90;;;;;;5085825;28;20231;-60
2023/12/27 04:10:25;;;;;;;38.70;15.33;;;7.50;99.90;;;;;;5083173;28;20305;-60
2023/12/27 04:12:54;;;;;;;38.10;16.07;;;7.50;99.90;;;;;;5084797;28;20235;-60
2023/12/27 04:15:22;;;;;;;34.80;15.20;;;7.60;99.90;;;;;;5083621;28;20724;-60
2023/12/27 04:17:50;;;;;;;34.30;15.27;;;7.60;99.90;;;;;;5080228;28;20219;-60
2023/12/27 04:20:19;;;;;;;33.37;15.00;;;7.70;99.90;;;;;;5084463;28;20241;-60
2023/12/27 04:22:47;;;;;;;33.30;14.57;;;7.80;99.90;;;;;;5082427;28;20192;-60
2023/12/27 04:25:15;;;;;;;35.43;14.83;;;7.80;99.90;;;;;;5084550;28;20310;-61
2023/12/27 04:27:45;;;;;;;32.90;14.70;;;7.90;99.90;;;;;;5084261;28;20219;-61
2023/12/27 04:30:13;;;;;;;31.60;14.40;;;7.90;99.90;;;;;;5084832;28;20228;-61
2023/12/27 04:32:42;;;;;;;24.70;13.37;;;7.90;99.90;;;;;;5083860;28;20762;-60
2023/12/27 04:35:10;;;;;;;29.87;13.37;;;8.00;99.90;;;;;;5086648;28;20232;-60
2023/12/27 04:37:38;;;;;;;25.53;12.70;;;8.00;99.90;;;;;;5081954;28;20266;-60
2023/12/27 04:40:08;;;;;;;27.30;12.07;;;8.10;99.90;;;;;;5082836;28;20238;-60
2023/12/27 04:42:36;;;;;;;29.03;12.23;;;8.10;99.90;;;;;;5084641;28;20232;-60
2023/12/27 04:45:07;;;;;;;23.17;11.97;;;8.10;99.90;;;;;;5083711;28;20237;-60
2023/12/27 04:47:35;;;;;;;27.13;11.77;;;8.10;99.90;;;;;;5081198;28;20747;-60
2023/12/27 04:50:04;;;;;;;27.03;11.53;;;8.20;99.90;;;;;;5079989;28;20196;-61
2023/12/27 04:52:32;;;;;;;24.60;11.93;;;8.20;99.90;;;;;;5081231;28;20199;-60
2023/12/27 04:55:01;;;;;;;26.97;12.00;;;8.30;99.90;;;;;;5082101;28;20306;-60
2023/12/27 04:57:29;;;;;;;21.57;11.23;;;8.40;99.90;;;;;;5083057;28;20223;-60
2023/12/27 04:59:57;;;;;;;19.53;11.30;;;8.40;99.90;;;;;;5084622;28;20226;-60
2023/12/27 05:02:27;;;;;;;23.17;11.10;;;8.50;99.90;;;;;;5081583;28;20223;-60
2023/12/27 05:04:55;;;;;;;21.73;10.90;;;8.50;99.90;;;;;;5083296;28;20539;-60
2023/12/27 05:07:23;;;;;;;25.10;11.73;;;8.60;99.90;;;;;;5080891;28;20211;-60
2023/12/27 05:09:52;;;;;;;26.57;11.73;;;8.60;99.90;;;;;;5082567;28;20227;-60
2023/12/27 05:12:20;;;;;;;19.80;11.07;;;8.60;99.90;;;;;;5081389;28;20217;-60
2023/12/27 05:14:48;;;;;;;19.67;11.10;;;8.60;99.90;;;;;;5075417;28;20226;-60
2023/12/27 05:17:16;;;;;;;20.07;10.53;;;8.70;99.90;;;;;;5083427;28;20219;-60
2023/12/27 05:19:46;;;;;;;19.53;11.17;;;8.70;99.90;;;;;;5083373;28;20196;-60
2023/12/27 05:22:15;;;;;;;24.50;11.50;;;8.80;99.90;;;;;;5086186;28;20215;-60
2023/12/27 05:24:44;;;;;;;19.97;10.93;;;8.80;99.90;;;;;;5082060;28;20222;-60
2023/12/27 05:27:12;;;;;;;21.37;11.60;;;8.80;99.90;;;;;;5082978;28;20222;-60
2023/12/27 05:29:39;;;;;;;20.07;11.00;;;8.90;99.90;;;;;;5083910;28;20234;-60
2023/12/27 05:32:08;;;;;;;22.13;11.57;;;8.90;99.90;;;;;;5082654;28;20184;-60
2023/12/27 05:34:36;;;;;;;22.27;12.10;;;8.90;99.90;;;;;;5082098;28;20203;-60
2023/12/27 05:37:06;;;;;;;19.37;11.83;;;9.00;99.90;;;;;;5085182;28;20670;-60
2023/12/27 05:39:34;;;;;;;20.30;11.43;;;9.00;99.90;;;;;;5081697;28;20219;-60
2023/12/27 05:42:03;;;;;;;17.60;11.33;;;9.00;99.90;;;;;;5083437;28;20226;-60
2023/12/27 05:44:31;;;;;;;19.73;11.90;;;9.00;99.90;;;;;;5081624;28;20227;-60
2023/12/27 05:47:00;;;;;;;21.83;12.10;;;9.00;99.90;;;;;;5078195;28;20197;-60
2023/12/27 05:49:29;;;;;;;18.70;11.67;;;9.10;99.90;;;;;;5083236;28;20207;-61
2023/12/27 05:51:57;;;;;;;19.90;11.73;;;9.10;99.90;;;;;;5082821;27;21658;-60
2023/12/27 05:54:27;;;;;;;24.40;11.73;;;9.10;99.90;;;;;;5089155;28;20215;-60
2023/12/27 05:56:55;;;;;;;17.57;11.00;;;9.20;99.90;;;;;;5085488;28;20231;-61
2023/12/27 05:59:23;;;;;;;18.77;11.53;;;9.10;99.90;;;;;;5085735;28;20233;-60
2023/12/27 06:01:52;;;;;;;19.43;11.10;;;9.20;99.90;;;;;;5087479;28;20203;-60
2023/12/27 06:04:21;;;;;;;18.93;11.30;;;9.20;99.90;;;;;;5085057;28;20293;-61
2023/12/27 06:06:50;;;;;;;20.07;11.30;;;9.20;99.90;;;;;;5084806;28;20215;-60
2023/12/27 06:09:18;;;;;;;19.40;11.27;;;9.20;99.90;;;;;;5090723;28;20226;-60
2023/12/27 06:11:48;;;;;;;18.23;10.87;;;9.20;99.90;;;;;;5088289;28;20236;-61
2023/12/27 06:14:16;;;;;;;19.43;10.63;;;9.20;99.90;;;;;;5085032;28;20200;-60
2023/12/27 06:16:44;;;;;;;17.47;11.00;;;9.10;99.90;;;;;;5086136;28;20194;-60
2023/12/27 06:19:13;;;;;;;19.67;10.40;;;9.10;99.90;;;;;;5085219;28;20305;-60
2023/12/27 06:21:41;;;;;;;14.87;10.37;;;9.10;99.90;;;;;;5084144;28;20231;-60
2023/12/27 06:24:09;;;;;;;15.57;10.17;;;9.10;99.90;;;;;;5083077;28;20226;-60
2023/12/27 06:26:37;;;;;;;14.63;9.87;;;9.20;99.90;;;;;;5084167;28;20231;-60
2023/12/27 06:29:07;;;;;;;16.50;10.27;;;9.20;99.90;;;;;;5084548;28;20295;-60
2023/12/27 06:31:35;;;;;;;17.30;10.63;;;9.20;99.90;;;;;;5087946;28;20638;-60
2023/12/27 06:34:04;;;;;;;14.13;9.50;;;9.20;99.90;;;;;;5085727;27;20238;-60
2023/12/27 06:36:32;;;;;;;15.17;9.80;;;9.20;99.90;;;;;;5081963;28;20211;-60
2023/12/27 06:39:01;;;;;;;14.23;9.70;;;9.20;99.90;;;;;;5084425;28;20765;-60
2023/12/27 06:41:29;;;;;;;15.60;9.40;;;9.20;99.90;;;;;;5087472;28;20231;-60
2023/12/27 06:43:57;;;;;;;13.87;9.30;;;9.20;99.90;;;;;;5083568;28;20204;-60
2023/12/27 06:46:27;;;;;;;16.00;8.87;;;9.20;99.90;;;;;;5081577;28;20228;-60
2023/12/27 06:48:56;;;;;;;16.43;9.40;;;9.20;99.90;;;;;;5085443;28;20230;-60
2023/12/27 06:51:24;;;;;;;15.30;9.53;;;9.20;99.90;;;;;;5083107;27;20625;-60
2023/12/27 06:53:53;;;;;;;13.33;9.20;;;9.20;99.90;;;;;;5083636;28;20219;-60
2023/12/27 06:56:21;;;;;;;12.70;8.17;;;9.20;99.90;;;;;;5083744;28;20223;-60
2023/12/27 06:58:49;;;;;;;11.47;8.37;;;9.20;99.90;;;;;;5080536;28;20187;-60
2023/12/27 07:01:17;;;;;;;13.37;8.87;;;9.20;99.90;;;;;;5084344;28;20257;-60
2023/12/27 07:03:47;;;;;;;12.80;8.33;;;9.20;99.90;;;;;;5080413;28;20234;-60
2023/12/27 07:06:15;;;;;;;13.43;8.53;;;9.20;99.90;;;;;;5084889;28;20575;-60
2023/12/27 07:08:44;;;;;;;16.80;7.97;;;9.30;99.90;;;;;;5084903;28;20250;-60
2023/12/27 07:11:18;;;;;;;14.50;8.57;;;9.30;99.90;;;;;;5084725;28;20229;-60
2023/12/27 07:13:46;;;;;;;11.73;7.90;;;9.30;99.90;;;;;;5083728;28;20194;-59
2023/12/27 07:16:15;;;;;;;10.67;7.53;;;9.30;99.90;;;;;;5081157;28;20310;-60
2023/12/27 07:18:43;;;;;;;10.43;7.60;;;9.30;99.90;;;;;;5082879;28;20350;-60
2023/12/27 07:21:14;;;;;;;12.43;7.40;;;9.30;99.90;;;;;;5085374;28;20227;-60
2023/12/27 07:23:42;;;;;;;16.90;7.43;;;9.40;99.90;;;;;;5080080;28;20273;-60
2023/12/27 07:26:12;;;;;;;8.03;6.57;;;9.30;99.90;;;;;;5085681;28;20231;-60
2023/12/27 07:28:41;;;;;;;16.83;6.57;;;9.30;99.90;;;;;;5088711;28;20226;-60
2023/12/27 07:31:10;;;;;;;10.60;6.87;;;9.40;99.90;;;;;;5086497;28;20220;-60
2023/12/27 07:33:39;;;;;;;11.40;6.57;;;9.40;99.90;;;;;;5081681;28;20311;-60
2023/12/27 07:36:08;;;;;;;9.63;5.60;;;9.40;99.90;;;;;;5081376;28;20868;-60
2023/12/27 07:38:38;;;;;;;10.50;6.50;;;9.40;99.90;;;;;;5083850;28;20212;-60
2023/12/27 07:41:07;;;;;;;13.73;6.27;;;9.40;99.90;;;;;;5083243;28;20780;-60
2023/12/27 07:43:35;;;;;;;8.10;5.73;;;9.50;99.90;;;;;;5082389;28;20192;-60
2023/12/27 07:46:04;;;;;;;8.77;6.03;;;9.50;99.90;;;;;;5085370;28;20259;-60
2023/12/27 07:48:32;;;;;;;12.10;5.90;;;9.50;99.90;;;;;;5084925;28;20225;-60
2023/12/27 07:51:01;;;;;;;9.93;5.50;;;9.50;99.90;;;;;;5083128;27;20588;-60
2023/12/27 07:53:29;;;;;;;10.30;5.87;;;9.50;99.90;;;;;;5085443;28;20226;-60
2023/12/27 07:55:59;;;;;;;13.47;5.60;;;9.50;99.90;;;;;;5081729;28;20204;-60
2023/12/27 07:58:27;;;;;;;10.00;5.83;;;9.50;99.90;;;;;;5086254;28;20227;-60
2023/12/27 08:00:55;;;;;;;11.10;5.63;;;9.60;99.90;;;;;;5081351;28;20219;-60
2023/12/27 08:03:23;;;;;;;11.00;5.40;;;9.50;99.90;;;;;;5082001;28;20608;-60
2023/12/27 08:05:52;;;;;;;13.47;5.07;;;9.60;99.90;;;;;;5083027;28;20216;-59
2023/12/27 08:08:20;;;;;;;8.13;5.60;;;9.60;99.90;;;;;;5081526;28;20235;-60
2023/12/27 08:10:48;;;;;;;9.07;4.90;;;9.60;99.90;;;;;;5081502;28;20736;-60
2023/12/27 08:13:18;;;;;;;9.13;5.30;;;9.60;99.90;;;;;;5083056;27;20229;-60
2023/12/27 08:15:46;;;;;;;7.60;5.67;;;9.60;99.90;;;;;;5076540;28;21808;-60
2023/12/27 08:18:15;;;;;;;13.20;5.37;;;9.60;99.90;;;;;;5083268;28;20227;-60
2023/12/27 08:20:43;;;;;;;9.97;5.37;;;9.60;99.90;;;;;;5081538;28;20223;-59
2023/12/27 08:23:13;;;;;;;9.97;5.43;;;9.60;99.90;;;;;;5082889;28;20205;-60
2023/12/27 08:25:41;;;;;;;6.10;4.87;;;9.60;99.90;;;;;;5086421;28;20187;-60
2023/12/27 08:28:09;;;;;;;8.93;4.90;;;9.60;99.90;;;;;;5080853;28;20305;-60
2023/12/27 08:30:39;;;;;;;8.73;5.33;;;9.60;99.90;;;;;;5081764;28;20234;-60
2023/12/27 08:33:08;;;;;;;6.50;5.13;;;9.60;99.90;;;;;;5070463;28;20356;-60
2023/12/27 08:35:37;;;;;;;9.80;4.87;;;9.60;99.90;;;;;;5083228;28;20215;-60
2023/12/27 08:38:06;;;;;;;11.80;5.63;;;9.60;99.90;;;;;;5080651;28;20192;-60
2023/12/27 08:40:34;;;;;;;7.40;4.80;;;9.60;99.90;;;;;;5083345;28;20209;-60
2023/12/27 08:43:03;;;;;;;11.90;5.03;;;9.60;99.90;;;;;;5082352;28;20223;-59
2023/12/27 08:45:31;;;;;;;8.33;4.90;;;9.70;99.90;;;;;;5082431;28;20223;-60
2023/12/27 08:48:01;;;;;;;7.40;4.93;;;9.70;99.90;;;;;;5079973;28;20710;-60
2023/12/27 08:50:30;;;;;;;5.80;4.77;;;9.70;99.90;;;;;;5080828;28;20228;-60
2023/12/27 08:52:58;;;;;;;12.33;5.17;;;9.70;99.90;;;;;;5081380;28;20187;-56
2023/12/27 08:55:26;;;;;;;10.13;5.10;;;9.70;99.90;;;;;;5084375;28;20195;-59
2023/12/27 08:57:54;;;;;;;11.57;5.00;;;9.70;99.90;;;;;;5079731;28;20230;-60
2023/12/27 09:00:23;;;;;;;9.77;5.10;;;9.70;99.90;;;;;;5081029;28;20303;-59
2023/12/27 09:02:51;;;;;;;11.40;5.00;;;9.80;99.90;;;;;;5081977;28;20251;-60
2023/12/27 09:05:21;;;;;;;8.20;4.50;;;9.80;99.90;;;;;;5080310;28;20223;-59
2023/12/27 09:07:49;;;;;;;10.73;5.17;;;9.80;99.90;;;;;;5087698;28;20201;-60
2023/12/27 09:10:18;;;;;;;11.47;5.23;;;9.80;99.90;;;;;;5081223;28;20721;-59
2023/12/27 09:12:46;;;;;;;7.83;5.17;;;9.80;99.90;;;;;;5078326;28;20302;-59
2023/12/27 09:15:15;;;;;;;17.00;5.13;;;9.80;99.90;;;;;;5082493;28;20217;-59
2023/12/27 09:17:44;;;;;;;9.17;4.90;;;9.80;99.90;;;;;;5080736;28;20230;-59
2023/12/27 09:20:12;;;;;;;7.37;5.23;;;9.80;99.90;;;;;;5081410;28;20188;-60
2023/12/27 09:22:42;;;;;;;8.20;4.90;;;9.80;99.90;;;;;;5084014;28;20276;-60
2023/12/27 09:25:12;;;;;;;16.27;5.73;;;9.80;99.90;;;;;;5081750;28;20215;-60
2023/12/27 09:27:43;;;;;;;8.50;4.80;;;9.80;99.90;;;;;;5079418;28;20250;-59
2023/12/27 09:30:12;;;;;;;10.63;5.63;;;9.80;99.90;;;;;;5084904;28;20239;-60
2023/12/27 09:32:42;;;;;;;10.23;5.30;;;9.80;99.90;;;;;;5083850;28;20233;-61
2023/12/27 09:35:11;;;;;;;7.77;5.33;;;9.80;99.90;;;;;;5083015;28;20278;-59
2023/12/27 09:37:39;;;;;;;8.50;5.23;;;9.80;99.90;;;;;;5079873;28;20188;-59
2023/12/27 09:40:11;;;;;;;9.50;5.53;;;9.90;99.90;;;;;;5074276;28;20211;-59
2023/12/27 09:42:41;;;;;;;8.40;5.00;;;9.90;99.90;;;;;;5071975;28;20310;-58
2023/12/27 09:45:14;;;;;;;13.30;5.83;;;9.90;99.90;;;;;;5074845;28;20234;-60
2023/12/27 09:47:45;;;;;;;7.73;5.50;;;9.90;99.90;;;;;;5076443;28;20234;-59
2023/12/27 09:50:14;;;;;;;13.40;5.60;;;9.90;99.90;;;;;;5074829;28;20208;-59
2023/12/27 09:52:43;;;;;;;7.73;5.37;;;9.90;99.90;;;;;;5077909;28;20650;-60
2023/12/27 09:55:13;;;;;;;11.83;5.57;;;9.90;99.90;;;;;;5077544;28;20227;-59
2023/12/27 09:57:43;;;;;;;12.60;6.00;;;9.90;99.90;;;;;;5075191;28;20215;-59
2023/12/27 10:00:13;;;;;;;11.10;5.30;;;9.90;99.90;;;;;;5077999;28;20658;-59
2023/12/27 10:02:44;;;;;;;10.93;5.93;;;10.00;99.90;;;;;;5078077;28;20701;-59
2023/12/27 10:05:20;;;;;;;14.17;5.90;;;10.00;99.90;;;;;;5078571;28;20188;-59
2023/12/27 10:07:48;;;;;;;12.97;6.00;;;10.00;99.90;;;;;;5078894;28;20198;-59
2023/12/27 10:10:19;;;;;;;8.13;4.97;;;10.00;99.90;;;;;;5073821;28;20219;-59
2023/12/27 10:12:55;;;;;;;8.47;5.30;;;10.00;99.90;;;;;;5074836;28;20215;-60
2023/12/27 10:15:24;;;;;;;14.03;5.93;;;10.00;99.90;;;;;;5077464;28;20214;-59
2023/12/27 10:17:53;;;;;;;13.93;5.53;;;10.00;99.90;;;;;;5081109;28;20313;-59
2023/12/27 10:20:32;;;;;;;10.17;5.27;;;10.00;99.90;;;;;;5083125;28;20228;-59
2023/12/27 10:23:01;;;;;;;13.60;5.40;;;10.00;99.90;;;;;;5082681;28;20195;-59
2023/12/27 10:25:32;;;;;;;5.87;5.27;;;10.10;99.90;;;;;;5084350;28;20191;-59
2023/12/27 10:28:01;;;;;;;6.60;5.37;;;10.10;99.90;;;;;;5081877;28;20310;-59
2023/12/27 10:30:30;;;;;;;7.47;5.07;;;10.10;99.90;;;;;;5083056;28;20227;-59
2023/12/27 10:32:59;;;;;;;8.00;4.60;;;10.10;99.90;;;;;;5082609;27;20231;-60
2023/12/27 10:35:28;;;;;;;8.57;5.17;;;10.10;99.90;;;;;;5083062;28;20215;-60
2023/12/27 10:38:00;;;;;;;7.07;4.87;;;10.10;99.90;;;;;;5081173;28;20534;-59
2023/12/27 10:40:29;;;;;;;7.97;4.63;;;10.10;99.90;;;;;;5116792;27;20223;-59
2023/12/27 10:42:59;;;;;;;5.60;4.97;;;10.10;99.90;;;;;;5081521;28;20212;-59
2023/12/27 10:45:27;;;;;;;8.30;4.73;;;10.20;99.90;;;;;;5079402;28;20223;-59
2023/12/27 10:47:59;;;;;;;9.43;5.00;;;10.20;99.90;;;;;;5087259;28;20213;-59
2023/12/27 10:50:29;;;;;;;8.67;5.10;;;10.10;99.90;;;;;;5084834;28;20234;-60
2023/12/27 10:53:03;;;;;;;7.53;4.63;;;10.20;99.90;;;;;;5082079;28;20202;-59
2023/12/27 10:55:33;;;;;;;9.73;5.03;;;10.20;99.90;;;;;;5080200;28;20295;-60
2023/12/27 10:58:06;;;;;;;6.23;4.93;;;10.20;99.90;;;;;;5083762;28;20212;-59
2023/12/27 11:00:35;;;;;;;10.23;4.90;;;10.10;99.90;;;;;;5079892;28;20216;-59
2023/12/27 11:03:04;;;;;;;12.13;5.40;;;10.20;99.90;;;;;;5083709;27;20339;-60
2023/12/27 11:05:33;;;;;;;7.50;5.10;;;10.20;99.90;;;;;;5080785;28;20221;-60
2023/12/27 11:08:02;;;;;;;6.40;4.73;;;10.20;99.90;;;;;;5081303;28;20188;-59
2023/12/27 11:10:31;;;;;;;7.17;4.73;;;10.20;99.90;;;;;;5084994;28;20292;-59
2023/12/27 11:13:02;;;;;;;10.27;5.10;;;10.20;99.90;;;;;;5081450;28;20223;-59
2023/12/27 11:15:33;;;;;;;7.27;5.20;;;10.20;99.90;;;;;;5082317;28;20974;-59
2023/12/27 11:18:04;;;;;;;10.83;4.80;;;10.20;99.90;;;;;;5086997;28;20334;-60
2023/12/27 11:20:34;;;;;;;8.97;5.17;;;10.20;99.90;;;;;;5083347;28;20215;-60
2023/12/27 11:23:04;;;;;;;7.70;5.00;;;10.30;99.90;;;;;;5083569;28;20492;-59
2023/12/27 11:25:33;;;;;;;12.43;5.30;;;10.30;99.90;;;;;;5082140;28;20194;-59
2023/12/27 11:28:03;;;;;;;6.23;4.77;;;10.20;99.90;;;;;;5085779;28;20229;-59
2023/12/27 11:30:34;;;;;;;10.03;4.77;;;10.30;99.90;;;;;;5101470;27;20217;-60
2023/12/27 11:33:02;;;;;;;11.03;5.27;;;10.30;99.90;;;;;;5086878;27;20216;-60
2023/12/27 11:35:33;;;;;;;9.93;5.57;;;10.20;99.90;;;;;;5084485;28;20227;-60
2023/12/27 11:38:15;;;;;;;9.00;5.20;;;10.30;99.90;;;;;;5083997;28;20187;-60
2023/12/27 11:40:44;;;;;;;11.00;4.90;;;10.20;99.90;;;;;;5084034;28;20279;-60
2023/12/27 11:43:20;;;;;;;7.07;4.70;;;10.20;99.90;;;;;;5085149;28;20220;-59
2023/12/27 11:46:07;;;;;;;9.63;4.90;;;10.20;99.90;;;;;;5083603;28;20223;-59
2023/12/27 11:48:37;;;;;;;7.40;4.97;;;10.20;99.90;;;;;;5082053;28;20211;-60
2023/12/27 11:51:28;;;;;;;8.17;4.57;;;10.30;99.90;;;;;;5083360;28;20219;-59
2023/12/27 11:53:56;;;;;;;7.00;4.60;;;10.30;99.90;;;;;;5083174;28;20207;-59
2023/12/27 11:56:28;;;;;;;10.17;4.97;;;10.20;99.90;;;;;;5081356;28;20219;-59
2023/12/27 11:59:00;;;;;;;7.83;4.80;;;10.20;99.90;;;;;;5087620;28;20187;-60
2023/12/27 12:01:30;;;;;;;8.93;4.80;;;10.30;99.90;;;;;;5082990;28;20212;-60
2023/12/27 12:04:37;;;;;;;14.00;4.77;;;10.20;99.90;;;;;;5079420;28;20679;-59
2023/12/27 12:07:45;;;;;;;9.10;4.60;;;10.30;99.90;;;;;;5085861;28;20230;-59
2023/12/27 12:10:24;;;;;;;11.07;4.63;;;10.20;99.90;;;;;;5083893;28;20273;-59
2023/12/27 12:12:55;;;;;;;11.53;4.00;;;10.20;99.90;;;;;;5083260;28;20229;-60
2023/12/27 12:15:29;;;;;;;8.57;4.37;;;10.20;99.90;;;;;;5086285;28;20284;-60
2023/12/27 12:17:59;;;;;;;8.87;4.40;;;10.20;99.90;;;;;;5084674;28;20220;-59
2023/12/27 12:20:28;;;;;;;6.20;4.20;;;10.20;99.90;;;;;;5081220;28;20243;-59
2023/12/27 12:22:57;;;;;;;7.27;4.60;;;10.20;99.90;;;;;;5084464;28;20188;-60
2023/12/27 12:25:26;;;;;;;11.67;4.70;;;10.20;99.90;;;;;;5085993;28;20564;-60
2023/12/27 12:27:54;;;;;;;9.60;4.27;;;10.20;99.90;;;;;;5082413;28;20246;-59
2023/12/27 12:30:23;;;;;;;9.03;4.63;;;10.20;99.90;;;;;;5084267;28;20219;-60
2023/12/27 12:32:53;;;;;;;6.07;4.17;;;10.10;99.90;;;;;;5084173;28;20215;-60
2023/12/27 12:35:21;;;;;;;7.93;4.40;;;10.10;99.90;;;;;;5082724;28;20220;-60
2023/12/27 12:37:49;;;;;;;10.43;4.90;;;10.10;99.90;;;;;;5080737;28;20200;-60
2023/12/27 12:40:17;;;;;;;7.50;4.67;;;10.10;99.90;;;;;;5080240;28;20590;-60
2023/12/27 12:42:46;;;;;;;6.60;4.50;;;10.20;99.90;;;;;;5086102;28;20246;-60
2023/12/27 12:45:15;;;;;;;11.20;4.80;;;10.20;99.90;;;;;;5082643;28;20216;-60
2023/12/27 12:47:43;;;;;;;6.53;4.87;;;10.20;99.90;;;;;;5083578;28;20276;-60
2023/12/27 12:50:18;;;;;;;6.47;4.33;;;10.20;99.90;;;;;;5083262;28;20196;-59
2023/12/27 12:52:46;;;;;;;8.37;4.57;;;10.20;99.90;;;;;;5080608;28;20298;-60
2023/12/27 12:55:15;;;;;;;11.63;4.40;;;10.20;99.90;;;;;;5085803;28;20230;-60